createdAt,value
2023-02-27T00:01:44.238Z,1.79
2023-02-27T00:04:19.552Z,1.75
2023-02-27T00:06:54.324Z,1.75
2023-02-27T00:09:29.359Z,1.73
2023-02-27T00:12:02.733Z,1.73
2023-02-27T00:14:37.354Z,1.71
2023-02-27T00:17:09.600Z,1.67
2023-02-27T00:19:41.592Z,1.69
2023-02-27T00:22:13.647Z,1.74
2023-02-27T00:24:53.192Z,1.81
2023-02-27T00:27:29.469Z,1.69
2023-02-27T00:30:04.813Z,1.74
2023-02-27T00:32:37.454Z,1.71
2023-02-27T00:35:12.966Z,1.55
2023-02-27T00:37:47.882Z,1.52
2023-02-27T00:40:25.674Z,1.46
2023-02-27T00:42:58.331Z,1.40
2023-02-27T00:45:30.253Z,1.40
2023-02-27T00:48:05.606Z,1.56
2023-02-27T00:50:40.803Z,1.63
2023-02-27T00:53:14.221Z,1.68
2023-02-27T00:55:48.222Z,1.69
2023-02-27T00:58:23.319Z,1.66
2023-02-27T01:00:55.097Z,1.63
2023-02-27T01:03:29.482Z,1.75
2023-02-27T01:06:01.316Z,1.81
2023-02-27T01:08:33.400Z,1.73
2023-02-27T01:11:05.660Z,1.64
2023-02-27T01:13:38.267Z,1.64
2023-02-27T01:16:11.462Z,1.62
2023-02-27T01:18:44.712Z,1.59
2023-02-27T01:21:17.291Z,1.58
2023-02-27T01:23:49.417Z,1.46
2023-02-27T01:26:27.543Z,1.48
2023-02-27T01:29:02.649Z,1.50
2023-02-27T01:31:36.089Z,1.44
2023-02-27T01:34:09.756Z,1.47
2023-02-27T01:36:42.060Z,1.49
2023-02-27T01:39:14.120Z,1.36
2023-02-27T01:41:47.479Z,1.43
2023-02-27T01:44:20.473Z,1.37
2023-02-27T01:46:54.159Z,1.43
2023-02-27T01:49:30.510Z,1.58
2023-02-27T01:52:07.641Z,1.57
2023-02-27T01:54:42.230Z,1.50
2023-02-27T01:57:16.026Z,1.44
2023-02-27T01:59:48.198Z,1.49
2023-02-27T02:02:25.300Z,1.44
2023-02-27T02:05:00.828Z,1.33
2023-02-27T02:07:34.227Z,1.38
2023-02-27T02:10:08.523Z,1.47
2023-02-27T02:12:42.161Z,1.44
2023-02-27T02:15:14.802Z,1.52
2023-02-27T02:17:58.140Z,1.58
2023-02-27T02:21:09.457Z,1.57
2023-02-27T02:24:21.950Z,1.61
2023-02-27T02:27:02.775Z,1.55
2023-02-27T02:30:26.870Z,1.53
2023-02-27T02:33:35.504Z,1.57
2023-02-27T02:36:50.997Z,1.64
2023-02-27T02:39:44.804Z,1.66
2023-02-27T02:42:24.071Z,1.56
2023-02-27T02:45:11.037Z,1.47
2023-02-27T02:47:54.921Z,1.39
2023-02-27T02:50:33.380Z,1.27
2023-02-27T02:53:12.810Z,1.31
2023-02-27T02:55:50.313Z,1.31
2023-02-27T02:58:28.669Z,1.31
2023-02-27T03:01:10.653Z,1.32
2023-02-27T03:03:47.070Z,1.31
2023-02-27T03:06:26.236Z,1.23
2023-02-27T03:09:04.648Z,1.27
2023-02-27T03:11:42.791Z,1.28
2023-02-27T03:14:23.710Z,1.48
2023-02-27T03:17:00.273Z,1.39
2023-02-27T03:19:38.725Z,1.39
2023-02-27T03:22:14.162Z,1.39
2023-02-27T03:24:52.281Z,1.44
2023-02-27T03:27:29.894Z,1.34
2023-02-27T03:30:08.696Z,1.30
2023-02-27T03:32:50.228Z,1.31
2023-02-27T03:35:22.483Z,1.35
2023-02-27T03:38:03.389Z,1.36
2023-02-27T03:40:39.706Z,1.32
2023-02-27T03:43:22.780Z,1.17
2023-02-27T03:46:06.335Z,1.15
2023-02-27T03:48:39.103Z,1.23
2023-02-27T03:51:10.932Z,1.31
2023-02-27T03:53:50.070Z,1.26
2023-02-27T03:56:28.915Z,1.25
2023-02-27T03:59:01.693Z,1.25
2023-02-27T04:01:33.924Z,1.26
2023-02-27T04:04:12.703Z,1.22
2023-02-27T04:07:07.876Z,1.22
2023-02-27T04:09:52.178Z,1.15
2023-02-27T04:12:45.766Z,1.18
2023-02-27T04:15:29.224Z,1.22
2023-02-27T04:18:12.339Z,1.35
2023-02-27T04:20:49.538Z,1.41
2023-02-27T04:23:25.992Z,1.40
2023-02-27T04:26:13.559Z,1.34
2023-02-27T04:36:16.377Z,1.53
2023-02-27T04:38:56.137Z,1.55
2023-02-27T04:41:34.432Z,1.44
2023-02-27T04:44:09.740Z,1.50
2023-02-27T04:46:45.419Z,1.40
2023-02-27T04:49:21.391Z,1.30
2023-02-27T04:51:58.901Z,1.42
2023-02-27T04:54:38.332Z,1.37
2023-02-27T04:57:16.064Z,1.26
2023-02-27T04:59:50.701Z,1.36
2023-02-27T05:02:29.326Z,1.29
2023-02-27T05:05:05.355Z,1.33
2023-02-27T05:07:41.317Z,1.32
2023-02-27T05:10:29.372Z,1.28
2023-02-27T05:13:05.270Z,1.27
2023-02-27T05:15:41.873Z,1.39
2023-02-27T05:18:17.961Z,1.35
2023-02-27T05:20:59.073Z,1.41
2023-02-27T05:23:39.435Z,1.54
2023-02-27T05:26:19.858Z,1.40
2023-02-27T05:28:59.801Z,1.30
2023-02-27T05:31:37.897Z,1.16
2023-02-27T05:34:16.885Z,1.08
2023-02-27T05:36:55.792Z,1.16
2023-02-27T05:39:32.204Z,1.12
2023-02-27T05:42:06.903Z,1.15
2023-02-27T05:44:44.340Z,1.23
2023-02-27T05:47:23.417Z,1.19
2023-02-27T05:49:57.897Z,1.16
2023-02-27T05:52:31.334Z,1.32
2023-02-27T05:55:08.601Z,1.24
2023-02-27T05:57:48.580Z,1.23
2023-02-27T06:00:29.535Z,1.18
2023-02-27T06:03:01.530Z,1.15
2023-02-27T06:05:36.359Z,1.16
2023-02-27T06:08:09.160Z,1.13
2023-02-27T06:10:41.637Z,1.12
2023-02-27T06:13:15.311Z,1.09
2023-02-27T06:15:47.677Z,1.12
2023-02-27T06:18:20.271Z,1.03
2023-02-27T06:20:53.716Z,1.22
2023-02-27T06:23:29.656Z,1.26
2023-02-27T06:26:03.377Z,1.22
2023-02-27T06:28:35.960Z,1.17
2023-02-27T06:31:08.247Z,1.09
2023-02-27T06:33:40.582Z,1.08
2023-02-27T06:36:16.993Z,1.18
2023-02-27T06:38:49.239Z,1.11
2023-02-27T06:41:23.546Z,1.12
2023-02-27T06:43:56.253Z,1.08
2023-02-27T06:46:29.747Z,1.12
2023-02-27T06:49:02.862Z,1.12
2023-02-27T06:51:34.771Z,1.14
2023-02-27T06:54:07.330Z,1.13
2023-02-27T06:56:39.102Z,1.06
2023-02-27T06:59:12.201Z,0.93
2023-02-27T07:01:44.536Z,0.75
2023-02-27T07:04:17.393Z,0.65
2023-02-27T07:07:32.753Z,0.65
2023-02-27T07:09:42.023Z,0.64
2023-02-27T07:12:13.919Z,0.56
2023-02-27T07:14:46.099Z,0.54
2023-02-27T07:17:17.956Z,0.48
2023-02-27T07:19:49.956Z,0.57
2023-02-27T07:22:22.278Z,0.54
2023-02-27T07:24:54.628Z,0.61
2023-02-27T07:27:26.747Z,0.77
2023-02-27T07:29:58.724Z,0.71
2023-02-27T07:32:30.289Z,0.67
2023-02-27T07:35:03.610Z,0.72
2023-02-27T07:37:37.771Z,0.71
2023-02-27T07:40:12.459Z,0.68
2023-02-27T07:42:44.821Z,0.69
2023-02-27T07:45:18.701Z,0.71
2023-02-27T07:47:50.471Z,0.73
2023-02-27T07:50:23.109Z,0.68
2023-02-27T07:52:55.987Z,0.69
2023-02-27T07:55:27.754Z,0.70
2023-02-27T07:58:00.702Z,0.69
2023-02-27T08:00:32.803Z,0.77
2023-02-27T08:03:06.740Z,0.75
2023-02-27T08:05:38.894Z,0.78
2023-02-27T08:08:11.195Z,0.80
2023-02-27T08:10:43.058Z,0.91
2023-02-27T08:13:17.878Z,1.07
2023-02-27T08:15:54.477Z,0.98
2023-02-27T08:18:29.113Z,0.90
2023-02-27T08:21:01.178Z,0.91
2023-02-27T08:23:33.129Z,1.02
2023-02-27T08:26:04.927Z,1.08
2023-02-27T08:28:36.591Z,1.11
2023-02-27T08:31:09.324Z,1.09
2023-02-27T08:33:41.035Z,1.10
2023-02-27T08:36:12.967Z,1.29
2023-02-27T08:38:45.055Z,1.47
2023-02-27T08:41:17.258Z,1.53
2023-02-27T08:43:48.878Z,1.73
2023-02-27T08:46:20.776Z,1.87
2023-02-27T08:48:52.528Z,1.90
2023-02-27T08:51:24.675Z,2.03
2023-02-27T08:53:59.283Z,2.04
2023-02-27T08:56:34.835Z,2.13
2023-02-27T08:59:06.658Z,2.39
2023-02-27T09:01:38.539Z,2.46
2023-02-27T09:04:11.286Z,2.36
2023-02-27T09:06:45.144Z,2.41
2023-02-27T09:09:17.121Z,2.40
2023-02-27T09:11:48.938Z,2.26
2023-02-27T09:14:21.733Z,2.10
2023-02-27T09:16:54.203Z,2.04
2023-02-27T09:19:25.937Z,2.05
2023-02-27T09:21:58.088Z,2.09
2023-02-27T09:24:29.981Z,2.07
2023-02-27T09:27:02.236Z,1.96
2023-02-27T09:29:33.946Z,1.91
2023-02-27T09:32:05.694Z,1.97
2023-02-27T09:34:40.086Z,2.06
2023-02-27T09:37:12.467Z,2.16
2023-02-27T09:39:46.260Z,2.28
2023-02-27T09:42:24.788Z,2.41
2023-02-27T09:44:59.442Z,2.48
2023-02-27T09:47:37.473Z,2.61
2023-02-27T09:50:20.794Z,2.77
2023-02-27T09:52:53.311Z,2.96
2023-02-27T09:55:29.247Z,3.00
2023-02-27T09:58:07.264Z,3.11
2023-02-27T10:00:50.073Z,3.24
2023-02-27T10:03:41.949Z,3.16
2023-02-27T10:06:27.120Z,2.98
2023-02-27T10:09:17.958Z,2.78
2023-02-27T10:12:04.871Z,2.65
2023-02-27T10:14:45.143Z,2.61
2023-02-27T10:17:24.826Z,2.51
2023-02-27T10:19:59.969Z,2.59
2023-02-27T10:22:36.974Z,2.67
2023-02-27T10:25:29.690Z,2.66
2023-02-27T10:28:12.873Z,2.64
2023-02-27T10:30:45.921Z,2.53
2023-02-27T10:33:28.224Z,2.58
2023-02-27T10:36:02.168Z,2.70
2023-02-27T10:38:38.087Z,2.81
2023-02-27T10:41:12.862Z,2.99
2023-02-27T10:43:43.461Z,3.24
2023-02-27T10:46:19.264Z,3.26
2023-02-27T10:48:51.131Z,3.25
2023-02-27T10:51:28.726Z,3.18
2023-02-27T10:54:17.977Z,3.07
2023-02-27T10:56:53.081Z,2.94
2023-02-27T10:59:27.878Z,2.86
2023-02-27T11:01:59.038Z,2.79
2023-02-27T11:04:34.006Z,2.81
2023-02-27T11:07:09.276Z,2.90
2023-02-27T11:09:41.358Z,3.00
2023-02-27T11:12:32.018Z,3.14
2023-02-27T11:15:23.345Z,3.17
2023-02-27T11:17:55.434Z,3.10
2023-02-27T11:20:47.581Z,2.92
2023-02-27T11:23:22.344Z,2.77
2023-02-27T11:25:52.768Z,2.75
2023-02-27T11:28:30.105Z,2.67
2023-02-27T11:31:05.841Z,2.70
2023-02-27T11:33:43.178Z,2.87
2023-02-27T11:36:17.708Z,3.01
2023-02-27T11:38:58.733Z,3.09
2023-02-27T11:41:36.566Z,3.18
2023-02-27T11:44:17.921Z,3.23
2023-02-27T11:47:09.441Z,3.13
2023-02-27T11:49:49.990Z,3.03
2023-02-27T11:52:29.119Z,2.95
2023-02-27T11:55:05.608Z,2.99
2023-02-27T11:57:41.527Z,3.06
2023-02-27T12:00:22.531Z,3.08
2023-02-27T12:03:00.915Z,3.14
2023-02-27T12:05:36.144Z,3.10
2023-02-27T12:08:17.979Z,3.04
2023-02-27T12:10:57.262Z,3.08
2023-02-27T12:13:37.402Z,3.10
2023-02-27T12:16:19.211Z,3.11
2023-02-27T12:18:57.230Z,3.09
2023-02-27T12:21:34.241Z,3.01
2023-02-27T12:24:18.129Z,3.00
2023-02-27T12:26:54.239Z,3.02
2023-02-27T12:29:31.847Z,3.11
2023-02-27T12:32:09.412Z,3.10
2023-02-27T12:34:47.198Z,3.23
2023-02-27T12:37:25.216Z,3.39
2023-02-27T12:40:00.663Z,3.44
2023-02-27T12:43:08.552Z,3.46
2023-02-27T12:46:06.167Z,3.39
2023-02-27T12:48:54.231Z,3.33
2023-02-27T12:51:37.062Z,3.27
2023-02-27T12:54:19.474Z,3.13
2023-02-27T12:57:03.336Z,3.07
2023-02-27T12:59:53.682Z,3.06
2023-02-27T13:02:47.783Z,3.20
2023-02-27T13:05:36.972Z,3.34
2023-02-27T13:08:34.450Z,3.39
2023-02-27T13:11:17.635Z,3.52
2023-02-27T13:13:56.623Z,3.34
2023-02-27T13:16:32.412Z,3.20
2023-02-27T13:19:11.932Z,3.06
2023-02-27T13:21:49.088Z,2.89
2023-02-27T13:24:28.754Z,2.91
2023-02-27T13:27:10.098Z,3.01
2023-02-27T13:29:47.834Z,3.04
2023-02-27T13:32:43.034Z,3.05
2023-02-27T13:35:25.820Z,3.01
2023-02-27T13:38:03.014Z,2.93
2023-02-27T13:40:44.957Z,2.91
2023-02-27T13:43:51.161Z,2.82
2023-02-27T13:46:30.131Z,2.80
2023-02-27T13:49:30.018Z,2.84
2023-02-27T13:52:04.352Z,2.79
2023-02-27T13:54:43.482Z,2.85
2023-02-27T13:57:26.708Z,2.74
2023-02-27T14:00:09.338Z,2.65
2023-02-27T14:02:58.861Z,2.76
2023-02-27T14:05:36.690Z,2.74
2023-02-27T14:08:18.427Z,2.80
2023-02-27T14:11:00.649Z,2.91
2023-02-27T14:14:06.762Z,2.83
2023-02-27T14:17:03.883Z,2.76
2023-02-27T14:19:59.683Z,2.71
2023-02-27T14:23:09.965Z,2.75
2023-02-27T14:25:45.624Z,2.81
2023-02-27T14:28:23.468Z,2.71
2023-02-27T14:31:01.719Z,2.67
2023-02-27T14:33:40.847Z,2.57
2023-02-27T14:36:22.598Z,2.56
2023-02-27T14:38:57.827Z,2.40
2023-02-27T14:41:45.242Z,2.28
2023-02-27T14:44:24.676Z,2.25
2023-02-27T14:47:03.389Z,2.19
2023-02-27T14:49:37.902Z,2.20
2023-02-27T14:52:21.371Z,2.26
2023-02-27T14:54:54.076Z,2.07
2023-02-27T14:57:27.786Z,2.03
2023-02-27T15:00:02.361Z,2.01
2023-02-27T15:02:37.539Z,2.00
2023-02-27T15:05:25.000Z,1.89
2023-02-27T15:07:58.298Z,1.81
2023-02-27T15:10:33.786Z,1.78
2023-02-27T15:13:06.672Z,1.80
2023-02-27T15:15:41.189Z,1.84
2023-02-27T15:18:18.617Z,1.93
2023-02-27T15:20:58.468Z,2.04
2023-02-27T15:23:31.395Z,1.97
2023-02-27T15:26:03.466Z,2.04
2023-02-27T15:28:40.270Z,2.06
2023-02-27T15:31:20.805Z,2.06
2023-02-27T15:33:53.900Z,2.06
2023-02-27T15:36:27.804Z,2.01
2023-02-27T15:39:18.215Z,1.97
2023-02-27T15:41:52.385Z,1.89
2023-02-27T15:44:29.296Z,1.84
2023-02-27T15:47:02.082Z,1.82
2023-02-27T15:49:34.108Z,1.78
2023-02-27T15:52:14.521Z,1.74
2023-02-27T15:54:53.365Z,1.71
2023-02-27T15:57:28.549Z,1.69
2023-02-27T16:00:01.944Z,1.71
2023-02-27T16:02:47.334Z,1.69
2023-02-27T16:05:23.238Z,1.69
2023-02-27T16:07:58.471Z,1.66
2023-02-27T16:10:33.268Z,1.60
2023-02-27T16:13:21.444Z,1.56
2023-02-27T16:16:05.182Z,1.51
2023-02-27T16:18:40.411Z,1.53
2023-02-27T16:21:18.753Z,1.48
2023-02-27T16:23:51.789Z,1.48
2023-02-27T16:26:33.135Z,1.40
2023-02-27T16:29:19.035Z,1.34
2023-02-27T16:31:54.811Z,1.29
2023-02-27T16:34:44.749Z,1.31
2023-02-27T16:37:25.914Z,1.34
2023-02-27T16:40:00.163Z,1.42
2023-02-27T16:42:32.769Z,1.40
2023-02-27T16:45:08.014Z,1.36
2023-02-27T16:47:41.257Z,1.27
2023-02-27T16:50:24.535Z,1.26
2023-02-27T16:52:58.534Z,1.20
2023-02-27T16:55:38.479Z,1.16
2023-02-27T16:58:11.741Z,1.18
2023-02-27T17:00:45.039Z,1.22
2023-02-27T17:03:17.130Z,1.11
2023-02-27T17:05:50.503Z,1.13
2023-02-27T17:08:26.448Z,1.22
2023-02-27T17:11:00.048Z,1.19
2023-02-27T17:13:32.634Z,1.16
2023-02-27T17:16:04.818Z,1.07
2023-02-27T17:18:40.432Z,1.04
2023-02-27T17:21:13.950Z,1.11
2023-02-27T17:23:47.321Z,1.03
2023-02-27T17:26:21.051Z,1.11
2023-02-27T17:28:54.109Z,1.13
2023-02-27T17:31:27.873Z,1.06
2023-02-27T17:34:00.111Z,1.06
2023-02-27T17:36:34.319Z,1.21
2023-02-27T17:39:09.472Z,1.28
2023-02-27T17:41:46.997Z,1.16
2023-02-27T17:44:20.613Z,1.05
2023-02-27T17:46:55.951Z,1.14
2023-02-27T17:49:29.863Z,1.22
2023-02-27T17:52:03.498Z,1.19
2023-02-27T17:54:37.726Z,1.10
2023-02-27T17:57:16.424Z,0.98
2023-02-27T17:59:49.749Z,0.87
2023-02-27T18:02:24.989Z,0.94
2023-02-27T18:05:00.682Z,1.04
2023-02-27T18:07:35.297Z,1.06
2023-02-27T18:10:19.603Z,1.17
2023-02-27T18:12:59.046Z,1.08
2023-02-27T18:15:38.887Z,1.11
2023-02-27T18:18:21.350Z,1.07
2023-02-27T18:21:08.783Z,0.97
2023-02-27T18:23:42.783Z,0.94
2023-02-27T18:26:29.483Z,0.92
2023-02-27T18:29:09.303Z,0.90
2023-02-27T18:31:50.882Z,0.87
2023-02-27T18:34:26.434Z,0.87
2023-02-27T18:37:02.577Z,0.95
2023-02-27T18:39:43.237Z,0.86
2023-02-27T18:42:17.411Z,0.77
2023-02-27T18:44:52.509Z,0.86
2023-02-27T18:47:33.878Z,0.86
2023-02-27T18:50:11.196Z,0.90
2023-02-27T18:52:47.868Z,1.06
2023-02-27T18:55:25.927Z,1.09
2023-02-27T18:58:00.663Z,0.95
2023-02-27T19:00:33.171Z,0.83
2023-02-27T19:03:09.210Z,0.79
2023-02-27T19:05:46.287Z,0.76
2023-02-27T19:08:30.737Z,0.69
2023-02-27T19:11:12.482Z,0.67
2023-02-27T19:16:41.608Z,0.67
2023-02-27T19:19:15.064Z,0.69
2023-02-27T19:21:50.819Z,0.64
2023-02-27T19:24:27.261Z,0.68
2023-02-27T19:26:59.740Z,0.67
2023-02-27T19:29:51.955Z,0.64
2023-02-27T19:32:28.077Z,0.59
2023-02-27T19:35:15.166Z,0.79
2023-02-27T19:38:00.966Z,1.05
2023-02-27T19:40:35.312Z,1.09
2023-02-27T19:43:15.996Z,0.95
2023-02-27T19:45:55.191Z,0.89
2023-02-27T19:48:30.841Z,0.84
2023-02-27T19:51:09.373Z,0.81
2023-02-27T19:53:52.042Z,0.74
2023-02-27T19:56:27.317Z,0.77
2023-02-27T19:59:07.604Z,0.74
2023-02-27T20:01:49.122Z,0.72
2023-02-27T20:04:26.743Z,0.59
2023-02-27T20:07:01.880Z,0.55
2023-02-27T20:09:36.143Z,0.51
2023-02-27T20:12:10.980Z,0.64
2023-02-27T20:14:45.742Z,0.55
2023-02-27T20:17:21.356Z,0.36
2023-02-27T20:19:57.866Z,0.35
2023-02-27T20:22:33.612Z,0.46
2023-02-27T20:25:17.205Z,0.39
2023-02-27T20:27:52.073Z,0.46
2023-02-27T20:30:22.407Z,0.51
2023-02-27T20:32:56.834Z,0.45
2023-02-27T20:35:32.366Z,0.45
2023-02-27T20:38:10.381Z,0.37
2023-02-27T20:40:51.169Z,0.31
2023-02-27T20:43:25.015Z,0.19
2023-02-27T20:46:04.727Z,0.11
2023-02-27T20:48:38.432Z,-0.04
2023-02-27T20:51:15.840Z,-0.17
2023-02-27T20:53:50.439Z,-0.13
2023-02-27T20:56:27.135Z,-0.12
2023-02-27T20:59:00.813Z,-0.24
2023-02-27T21:01:36.653Z,-0.20
2023-02-27T21:04:12.338Z,-0.02
2023-02-27T21:06:46.561Z,-0.02
2023-02-27T21:09:20.516Z,-0.00
2023-02-27T21:11:53.635Z,-0.05
2023-02-27T21:14:27.078Z,-0.08
2023-02-27T21:17:08.115Z,-0.17
2023-02-27T21:19:40.679Z,-0.09
2023-02-27T21:22:12.817Z,-0.04
2023-02-27T21:24:47.096Z,-0.05
2023-02-27T21:27:22.020Z,-0.03
2023-02-27T21:29:55.038Z,-0.07
2023-02-27T21:32:34.577Z,-0.05
2023-02-27T21:35:07.099Z,-0.07
2023-02-27T21:37:47.266Z,-0.01
2023-02-27T21:40:20.515Z,0.06
2023-02-27T21:42:53.481Z,-0.10
2023-02-27T21:45:27.137Z,-0.16
2023-02-27T21:47:59.939Z,-0.19
2023-02-27T21:50:34.301Z,-0.11
2023-02-27T21:53:07.076Z,-0.02
2023-02-27T21:55:41.317Z,0.04
2023-02-27T21:58:13.036Z,0.00
2023-02-27T22:00:45.398Z,-0.01
2023-02-27T22:03:17.372Z,-0.06
2023-02-27T22:05:53.126Z,-0.10
2023-02-27T22:08:25.756Z,-0.11
2023-02-27T22:11:03.171Z,-0.15
2023-02-27T22:13:35.407Z,-0.09
2023-02-27T22:16:12.076Z,0.09
2023-02-27T22:18:44.860Z,0.04
2023-02-27T22:21:19.501Z,0.05
2023-02-27T22:23:51.890Z,0.08
2023-02-27T22:26:25.668Z,-0.09
2023-02-27T22:28:59.321Z,-0.32
2023-02-27T22:31:33.492Z,-0.39
2023-02-27T22:34:08.047Z,-0.37
2023-02-27T22:36:44.491Z,-0.35
2023-02-27T22:39:17.554Z,-0.22
2023-02-27T22:41:50.019Z,-0.21
2023-02-27T22:44:21.697Z,-0.13
2023-02-27T22:46:54.906Z,-0.12
2023-02-27T22:49:27.041Z,-0.13
2023-02-27T22:51:58.825Z,-0.14
2023-02-27T22:54:30.789Z,-0.27
2023-02-27T22:57:03.142Z,-0.28
2023-02-27T22:59:35.046Z,-0.24
2023-02-27T23:02:07.461Z,-0.21
2023-02-27T23:04:39.382Z,-0.14
2023-02-27T23:07:11.628Z,-0.00
2023-02-27T23:09:44.172Z,0.07
2023-02-27T23:12:17.312Z,-0.07
2023-02-27T23:14:49.610Z,-0.23
2023-02-27T23:17:21.500Z,-0.26
2023-02-27T23:19:53.359Z,-0.26
2023-02-27T23:22:25.230Z,-0.31
2023-02-27T23:24:57.419Z,-0.40
2023-02-27T23:27:29.722Z,-0.57
2023-02-27T23:30:01.896Z,-0.53
2023-02-27T23:32:38.852Z,-0.45
2023-02-27T23:35:12.798Z,-0.39
2023-02-27T23:37:45.280Z,-0.38
2023-02-27T23:40:21.789Z,-0.47
2023-02-27T23:43:11.280Z,-0.57
2023-02-27T23:45:44.236Z,-0.55
2023-02-27T23:48:17.672Z,-0.63
2023-02-27T23:50:49.741Z,-0.57
2023-02-27T23:53:21.889Z,-0.53
2023-02-27T23:55:54.245Z,-0.54
2023-02-27T23:58:26.494Z,-0.57
